sensor_id;sensor_type;location;lat;lon;timestamp;temperature;humidity
29431;DHT22;16404;49.902;10.074;2022-12-20T00:02:24;3.60;64.70
29431;DHT22;16404;49.902;10.074;2022-12-20T00:05:09;3.60;64.70
29431;DHT22;16404;49.902;10.074;2022-12-20T00:07:54;3.70;64.70
29431;DHT22;16404;49.902;10.074;2022-12-20T00:10:41;3.70;64.80
29431;DHT22;16404;49.902;10.074;2022-12-20T00:13:26;3.80;64.70
29431;DHT22;16404;49.902;10.074;2022-12-20T00:16:13;3.80;64.70
29431;DHT22;16404;49.902;10.074;2022-12-20T00:19:00;3.90;64.80
29431;DHT22;16404;49.902;10.074;2022-12-20T00:21:45;3.90;64.80
29431;DHT22;16404;49.902;10.074;2022-12-20T00:24:30;4.00;64.90
29431;DHT22;16404;49.902;10.074;2022-12-20T00:27:14;4.00;65.10
29431;DHT22;16404;49.902;10.074;2022-12-20T00:29:59;4.00;65.20
29431;DHT22;16404;49.902;10.074;2022-12-20T00:32:44;4.10;65.30
29431;DHT22;16404;49.902;10.074;2022-12-20T00:35:29;4.10;65.30
29431;DHT22;16404;49.902;10.074;2022-12-20T00:38:15;4.20;65.40
29431;DHT22;16404;49.902;10.074;2022-12-20T00:41:04;4.20;65.40
29431;DHT22;16404;49.902;10.074;2022-12-20T00:43:49;4.30;65.60
29431;DHT22;16404;49.902;10.074;2022-12-20T00:46:34;4.30;66.30
29431;DHT22;16404;49.902;10.074;2022-12-20T00:49:18;4.30;65.60
29431;DHT22;16404;49.902;10.074;2022-12-20T00:52:03;4.40;65.70
29431;DHT22;16404;49.902;10.074;2022-12-20T00:54:48;4.40;65.70
29431;DHT22;16404;49.902;10.074;2022-12-20T00:57:33;4.50;65.70
29431;DHT22;16404;49.902;10.074;2022-12-20T01:00:18;4.50;65.60
29431;DHT22;16404;49.902;10.074;2022-12-20T01:03:03;4.60;65.70
29431;DHT22;16404;49.902;10.074;2022-12-20T01:05:56;4.60;65.60
29431;DHT22;16404;49.902;10.074;2022-12-20T01:08:41;4.70;65.70
29431;DHT22;16404;49.902;10.074;2022-12-20T01:11:28;4.70;65.50
29431;DHT22;16404;49.902;10.074;2022-12-20T01:14:15;4.70;65.50
29431;DHT22;16404;49.902;10.074;2022-12-20T01:17:00;4.70;65.50
29431;DHT22;16404;49.902;10.074;2022-12-20T01:19:45;4.70;65.60
29431;DHT22;16404;49.902;10.074;2022-12-20T01:22:30;4.70;65.70
29431;DHT22;16404;49.902;10.074;2022-12-20T01:25:14;4.70;65.70
29431;DHT22;16404;49.902;10.074;2022-12-20T01:27:59;4.80;65.70
29431;DHT22;16404;49.902;10.074;2022-12-20T01:30:43;4.80;65.70
29431;DHT22;16404;49.902;10.074;2022-12-20T01:33:28;4.80;65.70
29431;DHT22;16404;49.902;10.074;2022-12-20T01:36:20;4.90;65.70
29431;DHT22;16404;49.902;10.074;2022-12-20T01:39:13;4.90;65.60
29431;DHT22;16404;49.902;10.074;2022-12-20T01:41:58;5.00;65.60
29431;DHT22;16404;49.902;10.074;2022-12-20T01:47:31;5.00;65.70
29431;DHT22;16404;49.902;10.074;2022-12-20T01:50:17;5.00;65.70
29431;DHT22;16404;49.902;10.074;2022-12-20T01:53:02;5.10;65.70
29431;DHT22;16404;49.902;10.074;2022-12-20T01:55:48;5.20;65.60
29431;DHT22;16404;49.902;10.074;2022-12-20T01:58:33;5.20;65.20
29431;DHT22;16404;49.902;10.074;2022-12-20T02:01:20;5.30;65.30
29431;DHT22;16404;49.902;10.074;2022-12-20T02:04:05;5.30;64.90
29431;DHT22;16404;49.902;10.074;2022-12-20T02:06:50;5.30;64.80
29431;DHT22;16404;49.902;10.074;2022-12-20T02:09:35;5.30;65.10
29431;DHT22;16404;49.902;10.074;2022-12-20T02:12:27;5.30;65.20
29431;DHT22;16404;49.902;10.074;2022-12-20T02:18:32;5.40;65.60
29431;DHT22;16404;49.902;10.074;2022-12-20T02:22:14;5.50;65.50
29431;DHT22;16404;49.902;10.074;2022-12-20T02:28:53;5.50;65.20
29431;DHT22;16404;49.902;10.074;2022-12-20T02:31:30;5.50;65.40
29431;DHT22;16404;49.902;10.074;2022-12-20T02:34:17;5.50;65.30
29431;DHT22;16404;49.902;10.074;2022-12-20T02:37:05;5.50;65.50
29431;DHT22;16404;49.902;10.074;2022-12-20T02:39:51;5.50;66.30
29431;DHT22;16404;49.902;10.074;2022-12-20T02:42:36;5.50;65.70
29431;DHT22;16404;49.902;10.074;2022-12-20T02:45:25;5.50;65.70
29431;DHT22;16404;49.902;10.074;2022-12-20T02:48:10;5.50;65.70
29431;DHT22;16404;49.902;10.074;2022-12-20T02:50:57;5.50;65.60
29431;DHT22;16404;49.902;10.074;2022-12-20T02:53:42;5.50;65.60
29431;DHT22;16404;49.902;10.074;2022-12-20T02:56:42;5.50;65.60
29431;DHT22;16404;49.902;10.074;2022-12-20T02:59:33;5.50;65.60
29431;DHT22;16404;49.902;10.074;2022-12-20T03:02:23;5.50;65.60
29431;DHT22;16404;49.902;10.074;2022-12-20T03:05:08;5.50;65.50
29431;DHT22;16404;49.902;10.074;2022-12-20T03:07:54;5.60;65.60
29431;DHT22;16404;49.902;10.074;2022-12-20T03:10:42;5.60;65.70
29431;DHT22;16404;49.902;10.074;2022-12-20T03:13:27;5.60;65.70
29431;DHT22;16404;49.902;10.074;2022-12-20T03:16:19;5.60;65.60
29431;DHT22;16404;49.902;10.074;2022-12-20T03:19:04;5.60;65.50
29431;DHT22;16404;49.902;10.074;2022-12-20T03:21:49;5.60;65.60
29431;DHT22;16404;49.902;10.074;2022-12-20T03:24:34;5.60;65.60
29431;DHT22;16404;49.902;10.074;2022-12-20T03:27:22;5.60;65.70
29431;DHT22;16404;49.902;10.074;2022-12-20T03:30:08;5.50;65.70
29431;DHT22;16404;49.902;10.074;2022-12-20T03:32:54;5.60;65.70
29431;DHT22;16404;49.902;10.074;2022-12-20T03:35:39;5.60;65.60
29431;DHT22;16404;49.902;10.074;2022-12-20T03:38:24;5.60;65.60
29431;DHT22;16404;49.902;10.074;2022-12-20T03:41:08;5.60;65.60
29431;DHT22;16404;49.902;10.074;2022-12-20T03:43:53;5.60;66.20
29431;DHT22;16404;49.902;10.074;2022-12-20T03:46:39;5.60;65.50
29431;DHT22;16404;49.902;10.074;2022-12-20T03:49:24;5.60;65.60
29431;DHT22;16404;49.902;10.074;2022-12-20T03:52:11;5.60;66.30
29431;DHT22;16404;49.902;10.074;2022-12-20T03:54:56;5.70;65.60
29431;DHT22;16404;49.902;10.074;2022-12-20T03:57:47;5.70;65.40
29431;DHT22;16404;49.902;10.074;2022-12-20T04:00:56;5.70;65.50
29431;DHT22;16404;49.902;10.074;2022-12-20T04:04:12;5.70;66.10
29431;DHT22;16404;49.902;10.074;2022-12-20T04:06:57;5.70;65.30
29431;DHT22;16404;49.902;10.074;2022-12-20T04:09:42;5.70;65.50
29431;DHT22;16404;49.902;10.074;2022-12-20T04:12:29;5.70;65.60
29431;DHT22;16404;49.902;10.074;2022-12-20T04:15:14;5.70;65.70
29431;DHT22;16404;49.902;10.074;2022-12-20T04:18:00;5.70;65.90
29431;DHT22;16404;49.902;10.074;2022-12-20T04:20:45;5.70;66.10
29431;DHT22;16404;49.902;10.074;2022-12-20T04:23:41;5.70;66.00
29431;DHT22;16404;49.902;10.074;2022-12-20T04:26:27;5.80;65.90
29431;DHT22;16404;49.902;10.074;2022-12-20T04:29:13;5.80;65.90
29431;DHT22;16404;49.902;10.074;2022-12-20T04:31:59;5.80;65.80
29431;DHT22;16404;49.902;10.074;2022-12-20T04:34:44;5.80;65.70
29431;DHT22;16404;49.902;10.074;2022-12-20T04:37:29;5.80;65.80
29431;DHT22;16404;49.902;10.074;2022-12-20T04:40:15;5.80;65.80
29431;DHT22;16404;49.902;10.074;2022-12-20T04:43:09;5.80;65.70
29431;DHT22;16404;49.902;10.074;2022-12-20T04:45:55;5.90;65.70
29431;DHT22;16404;49.902;10.074;2022-12-20T04:48:41;5.90;65.70
29431;DHT22;16404;49.902;10.074;2022-12-20T04:51:26;5.80;65.70
29431;DHT22;16404;49.902;10.074;2022-12-20T04:54:11;5.80;65.70
29431;DHT22;16404;49.902;10.074;2022-12-20T04:57:16;5.80;65.90
29431;DHT22;16404;49.902;10.074;2022-12-20T05:00:02;5.80;66.00
29431;DHT22;16404;49.902;10.074;2022-12-20T05:02:47;5.80;66.00
29431;DHT22;16404;49.902;10.074;2022-12-20T05:05:35;5.80;65.70
29431;DHT22;16404;49.902;10.074;2022-12-20T05:08:20;5.80;65.70
29431;DHT22;16404;49.902;10.074;2022-12-20T05:11:08;5.80;65.80
29431;DHT22;16404;49.902;10.074;2022-12-20T05:13:53;5.70;66.00
29431;DHT22;16404;49.902;10.074;2022-12-20T05:16:39;5.70;66.20
29431;DHT22;16404;49.902;10.074;2022-12-20T05:19:24;5.80;66.90
29431;DHT22;16404;49.902;10.074;2022-12-20T05:22:10;5.90;66.20
29431;DHT22;16404;49.902;10.074;2022-12-20T05:25:26;5.80;66.10
29431;DHT22;16404;49.902;10.074;2022-12-20T05:28:32;5.90;66.00
29431;DHT22;16404;49.902;10.074;2022-12-20T05:31:17;5.90;66.00
29431;DHT22;16404;49.902;10.074;2022-12-20T05:34:02;5.80;66.00
29431;DHT22;16404;49.902;10.074;2022-12-20T05:36:50;5.80;66.00
29431;DHT22;16404;49.902;10.074;2022-12-20T05:39:37;5.90;66.10
29431;DHT22;16404;49.902;10.074;2022-12-20T05:42:27;5.80;66.10
29431;DHT22;16404;49.902;10.074;2022-12-20T05:45:11;5.80;66.10
29431;DHT22;16404;49.902;10.074;2022-12-20T05:48:05;5.90;66.10
29431;DHT22;16404;49.902;10.074;2022-12-20T05:50:52;5.90;66.00
29431;DHT22;16404;49.902;10.074;2022-12-20T05:53:43;5.90;65.90
29431;DHT22;16404;49.902;10.074;2022-12-20T05:56:28;5.90;65.90
29431;DHT22;16404;49.902;10.074;2022-12-20T05:59:12;5.90;65.90
29431;DHT22;16404;49.902;10.074;2022-12-20T06:01:57;5.90;65.90
29431;DHT22;16404;49.902;10.074;2022-12-20T06:04:42;5.90;66.00
29431;DHT22;16404;49.902;10.074;2022-12-20T06:07:33;5.90;66.00
29431;DHT22;16404;49.902;10.074;2022-12-20T06:10:18;5.90;66.00
29431;DHT22;16404;49.902;10.074;2022-12-20T06:13:09;5.90;66.00
29431;DHT22;16404;49.902;10.074;2022-12-20T06:15:55;6.00;65.90
29431;DHT22;16404;49.902;10.074;2022-12-20T06:18:40;6.00;65.90
29431;DHT22;16404;49.902;10.074;2022-12-20T06:21:25;6.00;65.90
29431;DHT22;16404;49.902;10.074;2022-12-20T06:24:11;6.00;65.90
29431;DHT22;16404;49.902;10.074;2022-12-20T06:27:01;6.00;65.90
29431;DHT22;16404;49.902;10.074;2022-12-20T06:29:47;6.00;65.70
29431;DHT22;16404;49.902;10.074;2022-12-20T06:32:38;6.10;65.70
29431;DHT22;16404;49.902;10.074;2022-12-20T06:35:24;6.00;65.60
29431;DHT22;16404;49.902;10.074;2022-12-20T06:38:12;6.00;65.70
29431;DHT22;16404;49.902;10.074;2022-12-20T06:40:56;5.90;65.90
29431;DHT22;16404;49.902;10.074;2022-12-20T06:43:42;5.90;65.90
29431;DHT22;16404;49.902;10.074;2022-12-20T06:46:26;5.90;65.80
29431;DHT22;16404;49.902;10.074;2022-12-20T06:49:12;5.90;65.80
29431;DHT22;16404;49.902;10.074;2022-12-20T06:51:57;5.90;65.60
29431;DHT22;16404;49.902;10.074;2022-12-20T06:54:58;5.90;65.50
29431;DHT22;16404;49.902;10.074;2022-12-20T06:57:42;5.80;65.40
29431;DHT22;16404;49.902;10.074;2022-12-20T07:00:27;5.80;65.40
29431;DHT22;16404;49.902;10.074;2022-12-20T07:03:12;5.80;65.20
29431;DHT22;16404;49.902;10.074;2022-12-20T07:05:57;5.80;65.30
29431;DHT22;16404;49.902;10.074;2022-12-20T07:08:41;5.70;65.30
29431;DHT22;16404;49.902;10.074;2022-12-20T07:11:26;5.70;65.40
29431;DHT22;16404;49.902;10.074;2022-12-20T07:14:11;5.70;65.30
29431;DHT22;16404;49.902;10.074;2022-12-20T07:16:55;5.70;65.40
29431;DHT22;16404;49.902;10.074;2022-12-20T07:19:41;5.70;65.60
29431;DHT22;16404;49.902;10.074;2022-12-20T07:22:25;5.60;65.60
29431;DHT22;16404;49.902;10.074;2022-12-20T07:25:10;5.60;65.70
29431;DHT22;16404;49.902;10.074;2022-12-20T07:27:57;5.60;65.80
29431;DHT22;16404;49.902;10.074;2022-12-20T07:30:42;5.60;65.90
29431;DHT22;16404;49.902;10.074;2022-12-20T07:33:34;5.60;66.00
29431;DHT22;16404;49.902;10.074;2022-12-20T07:36:20;5.60;66.10
29431;DHT22;16404;49.902;10.074;2022-12-20T07:39:04;5.60;66.20
29431;DHT22;16404;49.902;10.074;2022-12-20T07:41:53;5.70;66.20
29431;DHT22;16404;49.902;10.074;2022-12-20T07:44:39;5.70;66.30
29431;DHT22;16404;49.902;10.074;2022-12-20T07:47:24;5.70;66.30
29431;DHT22;16404;49.902;10.074;2022-12-20T07:50:09;5.70;66.30
29431;DHT22;16404;49.902;10.074;2022-12-20T07:52:54;5.80;66.40
29431;DHT22;16404;49.902;10.074;2022-12-20T07:55:39;5.80;66.40
29431;DHT22;16404;49.902;10.074;2022-12-20T07:58:26;5.80;66.50
29431;DHT22;16404;49.902;10.074;2022-12-20T08:01:11;5.80;66.40
29431;DHT22;16404;49.902;10.074;2022-12-20T08:04:07;5.90;66.40
29431;DHT22;16404;49.902;10.074;2022-12-20T08:06:55;5.90;66.40
29431;DHT22;16404;49.902;10.074;2022-12-20T08:09:43;5.90;66.40
29431;DHT22;16404;49.902;10.074;2022-12-20T08:12:29;5.90;66.50
29431;DHT22;16404;49.902;10.074;2022-12-20T08:15:14;5.90;66.70
29431;DHT22;16404;49.902;10.074;2022-12-20T08:17:59;5.90;66.60
29431;DHT22;16404;49.902;10.074;2022-12-20T08:20:43;5.90;66.60
29431;DHT22;16404;49.902;10.074;2022-12-20T08:23:27;6.00;66.70
29431;DHT22;16404;49.902;10.074;2022-12-20T08:26:12;6.00;66.70
29431;DHT22;16404;49.902;10.074;2022-12-20T08:28:57;6.00;66.70
29431;DHT22;16404;49.902;10.074;2022-12-20T08:31:41;6.00;66.60
29431;DHT22;16404;49.902;10.074;2022-12-20T08:34:26;6.10;66.60
29431;DHT22;16404;49.902;10.074;2022-12-20T08:37:10;6.10;66.50
29431;DHT22;16404;49.902;10.074;2022-12-20T08:39:55;6.10;66.40
29431;DHT22;16404;49.902;10.074;2022-12-20T08:42:39;6.10;66.50
29431;DHT22;16404;49.902;10.074;2022-12-20T08:45:24;6.10;66.60
29431;DHT22;16404;49.902;10.074;2022-12-20T08:48:09;6.20;66.60
29431;DHT22;16404;49.902;10.074;2022-12-20T08:51:01;6.20;66.60
29431;DHT22;16404;49.902;10.074;2022-12-20T08:53:46;6.20;66.50
29431;DHT22;16404;49.902;10.074;2022-12-20T08:56:31;6.20;66.50
29431;DHT22;16404;49.902;10.074;2022-12-20T08:59:15;6.20;66.60
29431;DHT22;16404;49.902;10.074;2022-12-20T09:02:00;6.20;66.60
29431;DHT22;16404;49.902;10.074;2022-12-20T09:04:45;6.20;66.60
29431;DHT22;16404;49.902;10.074;2022-12-20T09:07:30;6.20;66.60
29431;DHT22;16404;49.902;10.074;2022-12-20T09:10:15;6.20;66.50
29431;DHT22;16404;49.902;10.074;2022-12-20T09:13:00;6.20;66.50
29431;DHT22;16404;49.902;10.074;2022-12-20T09:15:44;6.30;66.60
29431;DHT22;16404;49.902;10.074;2022-12-20T09:18:33;6.30;66.60
29431;DHT22;16404;49.902;10.074;2022-12-20T09:21:19;6.40;66.60
29431;DHT22;16404;49.902;10.074;2022-12-20T09:24:09;6.40;66.50
29431;DHT22;16404;49.902;10.074;2022-12-20T09:26:54;6.40;66.50
29431;DHT22;16404;49.902;10.074;2022-12-20T09:29:38;6.40;66.60
29431;DHT22;16404;49.902;10.074;2022-12-20T09:32:23;6.40;66.60
29431;DHT22;16404;49.902;10.074;2022-12-20T09:35:08;6.40;66.80
29431;DHT22;16404;49.902;10.074;2022-12-20T09:37:52;6.50;66.70
29431;DHT22;16404;49.902;10.074;2022-12-20T09:40:37;6.60;66.60
29431;DHT22;16404;49.902;10.074;2022-12-20T09:43:22;6.60;66.40
29431;DHT22;16404;49.902;10.074;2022-12-20T09:46:12;6.70;66.50
29431;DHT22;16404;49.902;10.074;2022-12-20T09:48:57;6.60;66.60
29431;DHT22;16404;49.902;10.074;2022-12-20T10:00:52;6.70;67.20
29431;DHT22;16404;49.902;10.074;2022-12-20T10:03:37;6.70;67.20
29431;DHT22;16404;49.902;10.074;2022-12-20T10:19:07;7.00;67.10
29431;DHT22;16404;49.902;10.074;2022-12-20T10:22:20;7.00;67.60
29431;DHT22;16404;49.902;10.074;2022-12-20T10:27:57;7.10;66.90
29431;DHT22;16404;49.902;10.074;2022-12-20T10:30:43;7.10;67.00
29431;DHT22;16404;49.902;10.074;2022-12-20T10:33:30;7.10;67.20
29431;DHT22;16404;49.902;10.074;2022-12-20T10:39:07;7.20;67.30
29431;DHT22;16404;49.902;10.074;2022-12-20T10:41:52;7.20;67.10
29431;DHT22;16404;49.902;10.074;2022-12-20T10:44:37;7.20;67.00
29431;DHT22;16404;49.902;10.074;2022-12-20T10:47:30;7.20;67.10
29431;DHT22;16404;49.902;10.074;2022-12-20T10:50:21;7.20;67.20
29431;DHT22;16404;49.902;10.074;2022-12-20T10:56:06;7.30;67.30
29431;DHT22;16404;49.902;10.074;2022-12-20T10:58:59;7.30;67.20
29431;DHT22;16404;49.902;10.074;2022-12-20T11:01:45;7.40;67.20
29431;DHT22;16404;49.902;10.074;2022-12-20T11:04:32;7.40;67.00
29431;DHT22;16404;49.902;10.074;2022-12-20T11:07:23;7.50;67.10
29431;DHT22;16404;49.902;10.074;2022-12-20T11:10:21;7.50;67.10
29431;DHT22;16404;49.902;10.074;2022-12-20T11:13:22;7.50;67.00
29431;DHT22;16404;49.902;10.074;2022-12-20T11:16:23;7.50;67.50
29431;DHT22;16404;49.902;10.074;2022-12-20T11:22:41;7.60;66.80
29431;DHT22;16404;49.902;10.074;2022-12-20T11:31:55;7.70;66.80
29431;DHT22;16404;49.902;10.074;2022-12-20T11:41:18;7.80;66.80
29431;DHT22;16404;49.902;10.074;2022-12-20T11:53:03;8.00;66.40
29431;DHT22;16404;49.902;10.074;2022-12-20T11:55:52;8.00;66.30
29431;DHT22;16404;49.902;10.074;2022-12-20T11:58:51;8.00;66.30
29431;DHT22;16404;49.902;10.074;2022-12-20T12:01:42;8.10;66.20
29431;DHT22;16404;49.902;10.074;2022-12-20T12:04:33;8.10;65.90
29431;DHT22;16404;49.902;10.074;2022-12-20T12:07:22;8.20;65.90
29431;DHT22;16404;49.902;10.074;2022-12-20T12:10:23;8.10;65.80
29431;DHT22;16404;49.902;10.074;2022-12-20T12:13:15;8.10;65.90
29431;DHT22;16404;49.902;10.074;2022-12-20T12:16:07;8.20;65.90
29431;DHT22;16404;49.902;10.074;2022-12-20T12:18:52;8.20;65.90
29431;DHT22;16404;49.902;10.074;2022-12-20T12:21:38;8.20;65.90
29431;DHT22;16404;49.902;10.074;2022-12-20T12:24:39;8.30;65.80
29431;DHT22;16404;49.902;10.074;2022-12-20T12:27:27;8.30;65.40
29431;DHT22;16404;49.902;10.074;2022-12-20T12:30:15;8.30;65.30
29431;DHT22;16404;49.902;10.074;2022-12-20T12:33:03;8.30;65.50
29431;DHT22;16404;49.902;10.074;2022-12-20T12:42:51;8.30;65.50
29431;DHT22;16404;49.902;10.074;2022-12-20T12:45:41;8.30;65.40
29431;DHT22;16404;49.902;10.074;2022-12-20T12:51:31;8.30;65.40
29431;DHT22;16404;49.902;10.074;2022-12-20T12:57:17;8.30;65.10
29431;DHT22;16404;49.902;10.074;2022-12-20T13:00:02;8.30;64.90
29431;DHT22;16404;49.902;10.074;2022-12-20T13:02:50;8.30;64.90
29431;DHT22;16404;49.902;10.074;2022-12-20T13:05:35;8.30;64.90
29431;DHT22;16404;49.902;10.074;2022-12-20T13:08:46;8.30;64.90
29431;DHT22;16404;49.902;10.074;2022-12-20T13:19:53;8.30;65.30
29431;DHT22;16404;49.902;10.074;2022-12-20T13:22:38;8.20;65.20
29431;DHT22;16404;49.902;10.074;2022-12-20T13:25:30;8.30;65.30
29431;DHT22;16404;49.902;10.074;2022-12-20T13:33:59;8.30;65.10
29431;DHT22;16404;49.902;10.074;2022-12-20T13:36:47;8.20;65.10
29431;DHT22;16404;49.902;10.074;2022-12-20T13:39:46;8.30;65.10
29431;DHT22;16404;49.902;10.074;2022-12-20T13:42:39;8.30;65.10
29431;DHT22;16404;49.902;10.074;2022-12-20T13:45:25;8.30;64.90
29431;DHT22;16404;49.902;10.074;2022-12-20T13:48:14;8.30;64.90
29431;DHT22;16404;49.902;10.074;2022-12-20T13:50:59;8.20;64.90
29431;DHT22;16404;49.902;10.074;2022-12-20T13:59:31;8.30;64.70
29431;DHT22;16404;49.902;10.074;2022-12-20T14:02:20;8.30;64.90
29431;DHT22;16404;49.902;10.074;2022-12-20T14:05:18;8.30;65.10
29431;DHT22;16404;49.902;10.074;2022-12-20T14:08:14;8.30;65.00
29431;DHT22;16404;49.902;10.074;2022-12-20T14:11:26;8.20;64.90
29431;DHT22;16404;49.902;10.074;2022-12-20T14:14:11;8.20;64.90
29431;DHT22;16404;49.902;10.074;2022-12-20T14:17:30;8.30;64.80
29431;DHT22;16404;49.902;10.074;2022-12-20T14:20:41;8.30;65.10
29431;DHT22;16404;49.902;10.074;2022-12-20T14:23:53;8.20;65.10
29431;DHT22;16404;49.902;10.074;2022-12-20T14:26:53;8.30;65.10
29431;DHT22;16404;49.902;10.074;2022-12-20T14:30:40;8.30;65.00
29431;DHT22;16404;49.902;10.074;2022-12-20T14:33:41;8.30;65.20
29431;DHT22;16404;49.902;10.074;2022-12-20T14:36:27;8.20;65.10
29431;DHT22;16404;49.902;10.074;2022-12-20T14:39:35;8.20;65.10
29431;DHT22;16404;49.902;10.074;2022-12-20T14:51:23;8.20;65.20
29431;DHT22;16404;49.902;10.074;2022-12-20T14:55:16;8.10;65.20
29431;DHT22;16404;49.902;10.074;2022-12-20T14:57:52;8.10;65.10
29431;DHT22;16404;49.902;10.074;2022-12-20T15:01:50;8.10;65.10
29431;DHT22;16404;49.902;10.074;2022-12-20T15:04:45;8.10;65.00
29431;DHT22;16404;49.902;10.074;2022-12-20T15:08:16;8.00;65.10
29431;DHT22;16404;49.902;10.074;2022-12-20T15:14:01;8.10;65.10
29431;DHT22;16404;49.902;10.074;2022-12-20T15:16:48;8.10;65.10
29431;DHT22;16404;49.902;10.074;2022-12-20T15:19:32;8.10;65.00
29431;DHT22;16404;49.902;10.074;2022-12-20T15:22:18;8.10;65.00
29431;DHT22;16404;49.902;10.074;2022-12-20T15:25:14;8.00;64.90
29431;DHT22;16404;49.902;10.074;2022-12-20T15:27:59;7.90;65.80
29431;DHT22;16404;49.902;10.074;2022-12-20T15:30:45;8.00;65.10
29431;DHT22;16404;49.902;10.074;2022-12-20T15:33:31;7.90;65.20
29431;DHT22;16404;49.902;10.074;2022-12-20T15:36:22;7.90;65.30
29431;DHT22;16404;49.902;10.074;2022-12-20T15:39:12;7.90;65.30
29431;DHT22;16404;49.902;10.074;2022-12-20T15:43:26;7.90;65.30
29431;DHT22;16404;49.902;10.074;2022-12-20T15:49:41;7.80;65.50
29431;DHT22;16404;49.902;10.074;2022-12-20T15:52:49;7.80;65.40
29431;DHT22;16404;49.902;10.074;2022-12-20T15:55:34;7.80;65.50
29431;DHT22;16404;49.902;10.074;2022-12-20T15:58:19;7.80;65.60
29431;DHT22;16404;49.902;10.074;2022-12-20T16:01:03;7.80;65.60
29431;DHT22;16404;49.902;10.074;2022-12-20T16:03:48;7.80;65.60
29431;DHT22;16404;49.902;10.074;2022-12-20T16:06:33;7.80;65.50
29431;DHT22;16404;49.902;10.074;2022-12-20T16:09:20;7.80;65.40
29431;DHT22;16404;49.902;10.074;2022-12-20T16:12:27;7.80;65.50
29431;DHT22;16404;49.902;10.074;2022-12-20T16:15:19;7.70;65.60
29431;DHT22;16404;49.902;10.074;2022-12-20T16:18:06;7.80;65.40
29431;DHT22;16404;49.902;10.074;2022-12-20T16:20:51;7.80;65.40
29431;DHT22;16404;49.902;10.074;2022-12-20T16:23:36;7.80;65.20
29431;DHT22;16404;49.902;10.074;2022-12-20T16:26:23;7.70;65.20
29431;DHT22;16404;49.902;10.074;2022-12-20T16:29:07;7.70;65.30
29431;DHT22;16404;49.902;10.074;2022-12-20T16:31:52;7.70;65.40
29431;DHT22;16404;49.902;10.074;2022-12-20T16:34:37;7.60;65.30
29431;DHT22;16404;49.902;10.074;2022-12-20T16:37:21;7.70;65.40
29431;DHT22;16404;49.902;10.074;2022-12-20T16:40:07;7.60;65.10
29431;DHT22;16404;49.902;10.074;2022-12-20T16:42:52;7.50;65.30
29431;DHT22;16404;49.902;10.074;2022-12-20T16:45:36;7.50;65.50
29431;DHT22;16404;49.902;10.074;2022-12-20T16:48:30;7.50;65.60
29431;DHT22;16404;49.902;10.074;2022-12-20T16:54:14;7.40;65.80
29431;DHT22;16404;49.902;10.074;2022-12-20T16:56:59;7.30;65.80
29431;DHT22;16404;49.902;10.074;2022-12-20T16:59:43;7.30;66.60
29431;DHT22;16404;49.902;10.074;2022-12-20T17:02:31;7.30;66.10
29431;DHT22;16404;49.902;10.074;2022-12-20T17:08:06;7.30;66.20
29431;DHT22;16404;49.902;10.074;2022-12-20T17:10:51;7.30;66.10
29431;DHT22;16404;49.902;10.074;2022-12-20T17:13:35;7.30;66.10
29431;DHT22;16404;49.902;10.074;2022-12-20T17:16:21;7.30;66.10
29431;DHT22;16404;49.902;10.074;2022-12-20T17:19:05;7.30;66.00
29431;DHT22;16404;49.902;10.074;2022-12-20T17:21:50;7.30;66.00
29431;DHT22;16404;49.902;10.074;2022-12-20T17:24:34;7.30;66.10
29431;DHT22;16404;49.902;10.074;2022-12-20T17:27:19;7.30;66.10
29431;DHT22;16404;49.902;10.074;2022-12-20T17:30:04;7.30;66.20
29431;DHT22;16404;49.902;10.074;2022-12-20T17:32:49;7.30;66.20
29431;DHT22;16404;49.902;10.074;2022-12-20T17:35:34;7.40;66.10
29431;DHT22;16404;49.902;10.074;2022-12-20T17:38:19;7.40;65.70
29431;DHT22;16404;49.902;10.074;2022-12-20T17:41:03;7.40;65.70
29431;DHT22;16404;49.902;10.074;2022-12-20T17:43:48;7.40;65.50
29431;DHT22;16404;49.902;10.074;2022-12-20T17:46:32;7.40;65.80
29431;DHT22;16404;49.902;10.074;2022-12-20T17:49:18;7.40;65.80
29431;DHT22;16404;49.902;10.074;2022-12-20T17:52:03;7.40;65.70
29431;DHT22;16404;49.902;10.074;2022-12-20T17:54:47;7.30;65.90
29431;DHT22;16404;49.902;10.074;2022-12-20T17:57:32;7.30;66.10
29431;DHT22;16404;49.902;10.074;2022-12-20T18:03:08;7.30;66.50
29431;DHT22;16404;49.902;10.074;2022-12-20T18:05:53;7.30;66.60
29431;DHT22;16404;49.902;10.074;2022-12-20T18:08:38;7.30;66.60
29431;DHT22;16404;49.902;10.074;2022-12-20T18:11:24;7.30;66.60
29431;DHT22;16404;49.902;10.074;2022-12-20T18:14:09;7.30;66.60
29431;DHT22;16404;49.902;10.074;2022-12-20T18:16:54;7.30;66.60
29431;DHT22;16404;49.902;10.074;2022-12-20T18:19:38;7.40;66.60
29431;DHT22;16404;49.902;10.074;2022-12-20T18:22:24;7.40;66.30
29431;DHT22;16404;49.902;10.074;2022-12-20T18:25:09;7.40;66.30
29431;DHT22;16404;49.902;10.074;2022-12-20T18:27:56;7.40;66.30
29431;DHT22;16404;49.902;10.074;2022-12-20T18:30:41;7.40;66.40
29431;DHT22;16404;49.902;10.074;2022-12-20T18:33:27;7.40;66.40
29431;DHT22;16404;49.902;10.074;2022-12-20T18:36:16;7.40;66.30
29431;DHT22;16404;49.902;10.074;2022-12-20T18:39:05;7.50;66.20
29431;DHT22;16404;49.902;10.074;2022-12-20T18:41:49;7.40;65.90
29431;DHT22;16404;49.902;10.074;2022-12-20T18:44:34;7.40;66.00
29431;DHT22;16404;49.902;10.074;2022-12-20T18:47:19;7.40;65.90
29431;DHT22;16404;49.902;10.074;2022-12-20T18:50:04;7.40;65.90
29431;DHT22;16404;49.902;10.074;2022-12-20T18:52:49;7.30;66.00
29431;DHT22;16404;49.902;10.074;2022-12-20T18:55:38;7.30;66.10
29431;DHT22;16404;49.902;10.074;2022-12-20T18:58:23;7.30;66.10
29431;DHT22;16404;49.902;10.074;2022-12-20T19:01:19;7.30;66.10
29431;DHT22;16404;49.902;10.074;2022-12-20T19:04:05;7.20;66.30
29431;DHT22;16404;49.902;10.074;2022-12-20T19:06:50;7.20;66.30
29431;DHT22;16404;49.902;10.074;2022-12-20T19:09:35;7.20;66.30
29431;DHT22;16404;49.902;10.074;2022-12-20T19:12:19;7.20;66.30
29431;DHT22;16404;49.902;10.074;2022-12-20T19:15:05;7.20;66.40
29431;DHT22;16404;49.902;10.074;2022-12-20T19:17:49;7.20;66.40
29431;DHT22;16404;49.902;10.074;2022-12-20T19:20:35;7.20;66.40
29431;DHT22;16404;49.902;10.074;2022-12-20T19:23:19;7.20;66.40
29431;DHT22;16404;49.902;10.074;2022-12-20T19:26:08;7.20;66.40
29431;DHT22;16404;49.902;10.074;2022-12-20T19:28:53;7.20;66.50
29431;DHT22;16404;49.902;10.074;2022-12-20T19:31:37;7.20;66.60
29431;DHT22;16404;49.902;10.074;2022-12-20T19:34:22;7.30;66.60
29431;DHT22;16404;49.902;10.074;2022-12-20T19:37:06;7.30;67.00
29431;DHT22;16404;49.902;10.074;2022-12-20T19:39:51;7.30;66.40
29431;DHT22;16404;49.902;10.074;2022-12-20T19:42:36;7.30;66.40
29431;DHT22;16404;49.902;10.074;2022-12-20T19:45:21;7.30;66.50
29431;DHT22;16404;49.902;10.074;2022-12-20T19:48:05;7.30;66.60